Richfield, Wisconsin
Current Conditions -  °F | °C
As of 2:15 PM on Sunday 23 Nov 2014 (Local Time) from KETB Reporting Station
Drizzle Drizzle  
Wind Chill:   Ceiling: 500
Heat Index:   Visibility: 3mi
Dew Point:   Wind: 5mph
Humidity: 93%   Direction: 160°SSE
Pressure: 29.49"   Gusts: NA
Location:  43.26°N, 88.19°W
Report Text: KETB 232015Z AUTO 16004KT 3SM DZ OVC005 08/07 A2949 RMK AO2
Loading
Personal Weather Stations






























Interactive Weather Map New forecast layout! Learn more

10-Day Weather Forecast

Advertisements
Track Severe Weather on mobile